createdAt,value
2023-04-21T00:01:20.869Z,19.55
2023-04-21T00:03:47.922Z,20.17
2023-04-21T00:06:22.264Z,19.58
2023-04-21T00:08:51.577Z,18.20
2023-04-21T00:11:18.195Z,22.55
2023-04-21T00:13:44.873Z,20.30
2023-04-21T00:16:11.675Z,20.27
2023-04-21T00:18:38.594Z,17.35
2023-04-21T00:21:05.463Z,22.40
2023-04-21T00:23:32.074Z,20.25
2023-04-21T00:26:02.845Z,19.33
2023-04-21T00:28:29.880Z,20.98
2023-04-21T00:30:56.801Z,22.00
2023-04-21T00:33:23.410Z,21.65
2023-04-21T00:35:49.943Z,17.38
2023-04-21T00:38:16.460Z,18.98
2023-04-21T00:40:42.983Z,23.25
2023-04-21T00:43:09.449Z,21.15
2023-04-21T00:45:36.077Z,21.48
2023-04-21T00:48:02.602Z,20.38
2023-04-21T00:50:29.481Z,20.20
2023-04-21T00:52:56.829Z,17.92
2023-04-21T00:55:24.034Z,19.55
2023-04-21T00:57:52.390Z,22.20
2023-04-21T01:00:19.159Z,22.02
2023-04-21T01:02:46.326Z,21.73
2023-04-21T01:05:12.967Z,19.83
2023-04-21T01:07:39.755Z,20.10
2023-04-21T01:10:07.077Z,20.40
2023-04-21T01:12:35.563Z,18.65
2023-04-21T01:15:02.117Z,18.90
2023-04-21T01:17:29.300Z,21.38
2023-04-21T01:19:57.543Z,15.82
2023-04-21T01:22:24.117Z,21.63
2023-04-21T01:24:50.630Z,22.23
2023-04-21T01:27:21.119Z,19.55
2023-04-21T01:29:50.358Z,19.90
2023-04-21T01:32:19.479Z,20.88
2023-04-21T01:37:15.564Z,18.77
2023-04-21T01:42:10.058Z,26.08
2023-04-21T01:44:37.102Z,20.92
2023-04-21T01:47:04.082Z,20.48
2023-04-21T01:49:30.569Z,23.55
2023-04-21T01:51:57.107Z,20.52
2023-04-21T01:54:23.627Z,23.65
2023-04-21T01:56:50.255Z,23.52
2023-04-21T01:59:17.222Z,23.75
2023-04-21T02:01:43.923Z,20.65
2023-04-21T02:04:11.060Z,22.33
2023-04-21T02:06:38.168Z,22.15
2023-04-21T02:09:04.835Z,21.77
2023-04-21T02:11:31.491Z,23.88
2023-04-21T02:13:58.067Z,20.63
2023-04-21T02:16:27.482Z,19.77
2023-04-21T02:18:56.866Z,22.75
2023-04-21T02:21:24.446Z,22.75
2023-04-21T02:23:51.737Z,21.38
2023-04-21T02:26:19.260Z,23.95
2023-04-21T02:28:45.832Z,22.27
2023-04-21T02:31:12.469Z,21.40
2023-04-21T02:33:39.179Z,22.17
2023-04-21T02:36:06.084Z,20.83
2023-04-21T02:38:32.625Z,21.02
2023-04-21T02:40:59.115Z,24.52
2023-04-21T02:43:25.664Z,18.63
2023-04-21T02:45:52.270Z,21.38
2023-04-21T02:48:23.049Z,23.08
2023-04-21T02:50:50.749Z,22.25
2023-04-21T02:53:17.341Z,24.48
2023-04-21T02:55:46.029Z,21.30
2023-04-21T02:58:12.587Z,24.33
2023-04-21T03:00:39.137Z,22.58
2023-04-21T03:03:05.882Z,21.88
2023-04-21T03:05:32.464Z,21.85
2023-04-21T03:07:59.036Z,21.73
2023-04-21T03:10:25.582Z,23.38
2023-04-21T03:12:52.164Z,23.15
2023-04-21T03:15:19.466Z,23.05
2023-04-21T03:17:46.006Z,22.90
2023-04-21T03:20:12.874Z,22.98
2023-04-21T03:22:39.627Z,22.85
2023-04-21T03:25:07.496Z,21.10
2023-04-21T03:27:35.152Z,22.83
2023-04-21T03:30:01.733Z,22.75
2023-04-21T03:32:28.562Z,23.92
2023-04-21T03:34:55.167Z,25.60
2023-04-21T03:37:21.712Z,23.73
2023-04-21T03:39:48.505Z,22.77
2023-04-21T03:42:15.048Z,19.77
2023-04-21T03:44:41.506Z,21.58
2023-04-21T03:47:07.974Z,22.98
2023-04-21T03:49:34.949Z,22.52
2023-04-21T03:52:01.598Z,21.67
2023-04-21T03:54:28.221Z,24.35
2023-04-21T03:56:54.682Z,22.17
2023-04-21T03:59:21.525Z,22.63
2023-04-21T04:01:48.211Z,22.52
2023-04-21T04:04:15.008Z,20.65
2023-04-21T04:06:42.015Z,22.60
2023-04-21T04:09:09.176Z,22.17
2023-04-21T04:11:35.909Z,21.58
2023-04-21T04:14:02.436Z,21.70
2023-04-21T04:16:29.273Z,22.27
2023-04-21T04:18:56.495Z,23.90
2023-04-21T04:21:23.117Z,25.42
2023-04-21T04:23:51.790Z,20.58
2023-04-21T04:26:18.820Z,20.80
2023-04-21T04:28:45.973Z,22.27
2023-04-21T04:31:13.719Z,21.38
2023-04-21T04:33:44.208Z,23.58
2023-04-21T04:36:12.056Z,24.58
2023-04-21T04:38:38.703Z,23.45
2023-04-21T04:41:06.355Z,25.02
2023-04-21T04:43:42.884Z,24.52
2023-04-21T04:46:11.260Z,21.25
2023-04-21T04:48:37.841Z,22.30
2023-04-21T04:51:04.908Z,21.33
2023-04-21T04:53:31.604Z,21.88
2023-04-21T04:56:02.032Z,26.67
2023-04-21T04:58:28.531Z,24.33
2023-04-21T05:00:55.120Z,22.55
2023-04-21T05:03:21.827Z,24.15
2023-04-21T05:05:48.469Z,24.30
2023-04-21T05:08:17.681Z,21.15
2023-04-21T05:10:44.612Z,21.60
2023-04-21T05:13:11.112Z,23.67
2023-04-21T05:15:37.663Z,25.25
2023-04-21T05:18:04.294Z,26.80
2023-04-21T05:20:30.950Z,22.77
2023-04-21T05:22:57.419Z,24.73
2023-04-21T05:25:24.029Z,23.55
2023-04-21T05:27:50.610Z,23.85
2023-04-21T05:30:17.206Z,25.77
2023-04-21T05:32:43.724Z,25.02
2023-04-21T05:35:10.758Z,23.65
2023-04-21T05:37:37.280Z,24.30
2023-04-21T05:40:04.045Z,24.75
2023-04-21T05:42:31.144Z,22.70
2023-04-21T05:44:58.106Z,27.38
2023-04-21T05:47:24.705Z,24.30
2023-04-21T05:49:53.621Z,24.48
2023-04-21T05:52:23.620Z,21.98
2023-04-21T05:54:50.516Z,25.75
2023-04-21T05:57:17.763Z,24.55
2023-04-21T05:59:44.621Z,24.45
2023-04-21T06:02:11.786Z,25.33
2023-04-21T06:04:38.897Z,24.80
2023-04-21T06:07:07.310Z,21.00
2023-04-21T06:09:35.290Z,23.70
2023-04-21T06:12:02.632Z,25.42
2023-04-21T06:14:29.166Z,22.73
2023-04-21T06:16:55.682Z,21.48
2023-04-21T06:19:22.199Z,22.20
2023-04-21T06:21:48.773Z,21.45
2023-04-21T06:24:15.612Z,21.83
2023-04-21T06:26:42.174Z,24.10
2023-04-21T06:29:08.748Z,23.60
2023-04-21T06:31:35.343Z,23.27
2023-04-21T06:34:01.882Z,24.10
2023-04-21T06:36:28.737Z,23.58
2023-04-21T06:38:55.319Z,20.90
2023-04-21T06:41:22.981Z,21.25
2023-04-21T06:43:51.282Z,21.92
2023-04-21T06:46:18.396Z,22.08
2023-04-21T06:48:45.074Z,21.00
2023-04-21T06:51:11.633Z,23.75
2023-04-21T06:53:38.358Z,20.15
2023-04-21T06:56:05.266Z,20.35
2023-04-21T06:58:31.777Z,23.52
2023-04-21T07:53:51.183Z,18.67
2023-04-21T07:56:17.898Z,21.50
2023-04-21T07:58:44.405Z,17.88
2023-04-21T08:01:11.122Z,19.30
2023-04-21T08:03:37.832Z,19.17
2023-04-21T08:06:05.046Z,19.80
2023-04-21T08:08:32.099Z,18.27
2023-04-21T08:10:58.885Z,21.95
2023-04-21T08:13:25.865Z,18.75
2023-04-21T08:15:53.138Z,16.80
2023-04-21T08:18:22.372Z,17.00
2023-04-21T08:20:49.413Z,14.40
2023-04-21T08:23:16.047Z,15.90
2023-04-21T08:25:43.699Z,15.73
2023-04-21T08:28:10.277Z,15.43
2023-04-21T08:30:36.884Z,13.10
2023-04-21T08:33:03.597Z,15.68
2023-04-21T08:35:30.390Z,17.23
2023-04-21T08:37:56.929Z,17.50
2023-04-21T08:40:32.732Z,17.45
2023-04-21T08:42:59.770Z,18.25
2023-04-21T08:45:28.196Z,19.05
2023-04-21T08:47:56.437Z,18.35
2023-04-21T08:50:29.689Z,17.98
2023-04-21T08:52:56.646Z,16.00
2023-04-21T08:55:29.014Z,18.73
2023-04-21T08:57:55.744Z,15.90
2023-04-21T09:00:22.998Z,15.25
2023-04-21T09:03:01.774Z,16.58
2023-04-21T09:05:33.122Z,18.63
2023-04-21T09:08:10.284Z,17.50
2023-04-21T09:10:49.958Z,15.75
2023-04-21T09:13:18.303Z,17.60
2023-04-21T09:15:49.623Z,15.55
2023-04-21T09:18:24.952Z,16.95
2023-04-21T09:21:04.686Z,15.40
2023-04-21T09:23:31.222Z,16.98
2023-04-21T09:25:58.855Z,17.92
2023-04-21T09:28:32.298Z,15.52
2023-04-21T09:30:59.423Z,16.52
2023-04-21T09:33:31.002Z,16.08
2023-04-21T09:36:02.390Z,15.52
2023-04-21T09:38:28.940Z,13.85
2023-04-21T09:40:59.905Z,14.85
2023-04-21T09:43:26.737Z,15.98
2023-04-21T09:45:55.911Z,15.07
2023-04-21T09:48:24.660Z,15.73
2023-04-21T09:53:40.482Z,15.38
2023-04-21T09:56:15.821Z,16.50
2023-04-21T09:58:54.868Z,14.77
2023-04-21T10:01:24.628Z,16.08
2023-04-21T10:03:51.745Z,16.27
2023-04-21T10:06:18.676Z,16.85
2023-04-21T10:08:45.971Z,15.40
2023-04-21T10:11:13.751Z,17.88
2023-04-21T10:13:42.092Z,19.58
2023-04-21T10:16:10.098Z,16.02
2023-04-21T10:18:44.713Z,17.13
2023-04-21T10:21:22.071Z,16.00
2023-04-21T10:23:49.888Z,18.05
2023-04-21T10:26:29.335Z,16.75
2023-04-21T10:29:06.956Z,15.38
2023-04-21T10:31:51.175Z,16.65
2023-04-21T10:34:20.551Z,16.58
2023-04-21T10:37:11.677Z,17.25
2023-04-21T10:39:43.946Z,16.02
2023-04-21T10:42:13.333Z,16.92
2023-04-21T10:44:43.128Z,15.00
2023-04-21T10:47:10.001Z,16.20
2023-04-21T10:49:40.548Z,16.73
2023-04-21T10:52:09.310Z,16.85
2023-04-21T10:55:06.713Z,17.67
2023-04-21T10:57:35.503Z,17.70
2023-04-21T11:00:06.205Z,15.95
2023-04-21T11:02:38.326Z,16.30
2023-04-21T11:05:07.411Z,17.33
2023-04-21T11:07:34.081Z,17.23
2023-04-21T11:10:07.419Z,18.33
2023-04-21T11:12:39.879Z,15.77
2023-04-21T11:15:09.025Z,17.20
2023-04-21T11:17:37.063Z,17.42
2023-04-21T11:20:06.624Z,16.00
2023-04-21T11:22:33.954Z,15.82
2023-04-21T11:25:00.928Z,15.23
2023-04-21T11:27:29.098Z,17.95
2023-04-21T11:29:58.931Z,16.80
2023-04-21T11:32:25.471Z,16.17
2023-04-21T11:34:52.080Z,15.65
2023-04-21T11:37:28.116Z,17.98
2023-04-21T11:40:01.183Z,15.90
2023-04-21T11:42:28.542Z,17.38
2023-04-21T11:44:56.502Z,14.93
2023-04-21T11:47:25.215Z,15.85
2023-04-21T11:50:00.782Z,15.13
2023-04-21T11:52:28.925Z,14.35
2023-04-21T11:55:05.403Z,15.35
2023-04-21T11:57:32.828Z,17.50
2023-04-21T12:00:01.100Z,14.25
2023-04-21T12:02:30.416Z,17.15
2023-04-21T12:05:08.990Z,15.40
2023-04-21T12:07:37.722Z,14.90
2023-04-21T12:12:42.349Z,14.68
2023-04-21T12:15:10.888Z,16.15
2023-04-21T12:17:45.384Z,14.75
2023-04-21T12:22:39.084Z,15.38
2023-04-21T12:25:06.089Z,15.30
2023-04-21T12:27:32.962Z,16.33
2023-04-21T12:29:59.696Z,15.90
2023-04-21T12:32:26.464Z,13.65
2023-04-21T12:34:53.194Z,14.35
2023-04-21T12:37:19.868Z,15.20
2023-04-21T12:39:46.459Z,16.90
2023-04-21T12:42:13.326Z,12.10
2023-04-21T12:44:40.621Z,13.40
2023-04-21T12:47:07.417Z,14.82
2023-04-21T12:49:34.031Z,13.60
2023-04-21T12:52:00.595Z,12.60
2023-04-21T12:54:27.406Z,11.40
2023-04-21T12:56:54.202Z,13.43
2023-04-21T12:59:21.405Z,11.75
2023-04-21T13:01:48.098Z,12.27
2023-04-21T13:04:14.963Z,10.85
2023-04-21T13:06:41.856Z,11.20
2023-04-21T13:09:08.412Z,12.25
2023-04-21T13:11:35.092Z,11.50
2023-04-21T13:14:04.050Z,11.50
2023-04-21T13:16:31.444Z,10.95
2023-04-21T13:18:58.251Z,9.88
2023-04-21T13:21:24.881Z,10.93
2023-04-21T13:23:51.497Z,10.93
2023-04-21T13:26:18.863Z,9.48
2023-04-21T13:28:45.614Z,9.63
2023-04-21T13:31:12.327Z,8.82
2023-04-21T13:33:39.061Z,8.57
2023-04-21T13:36:05.946Z,9.15
2023-04-21T13:38:32.914Z,10.50
2023-04-21T13:40:59.629Z,8.32
2023-04-21T13:43:27.497Z,9.40
2023-04-21T13:45:54.148Z,10.90
2023-04-21T13:48:22.062Z,7.07
2023-04-21T13:50:49.085Z,8.10
2023-04-21T13:53:21.156Z,8.07
2023-04-21T13:55:48.190Z,8.73
2023-04-21T13:58:16.069Z,6.75
2023-04-21T14:00:42.851Z,9.07
2023-04-21T14:03:10.106Z,7.50
2023-04-21T14:05:37.039Z,7.78
2023-04-21T14:08:03.730Z,8.15
2023-04-21T14:10:31.167Z,8.18
2023-04-21T14:12:57.730Z,6.05
2023-04-21T14:15:26.063Z,10.02
2023-04-21T14:20:19.726Z,6.43
2023-04-21T14:22:55.653Z,7.97
2023-04-21T14:25:22.588Z,9.00
2023-04-21T14:27:50.220Z,8.13
2023-04-21T14:30:16.795Z,7.65
2023-04-21T14:32:45.692Z,7.38
2023-04-21T14:35:13.039Z,8.30
2023-04-21T14:37:40.706Z,7.85
2023-04-21T14:40:08.727Z,7.68
2023-04-21T14:42:35.690Z,8.75
2023-04-21T14:45:02.282Z,6.68
2023-04-21T14:47:28.858Z,6.68
2023-04-21T14:49:56.116Z,6.90
2023-04-21T14:52:25.841Z,6.75
2023-04-21T14:54:52.988Z,7.63
2023-04-21T14:57:28.551Z,5.68
2023-04-21T14:59:55.348Z,6.70
2023-04-21T15:02:22.765Z,5.60
2023-04-21T15:04:50.421Z,7.50
2023-04-21T15:07:24.403Z,5.63
2023-04-21T15:09:51.736Z,6.30
2023-04-21T15:12:18.398Z,6.25
2023-04-21T15:14:44.984Z,6.57
2023-04-21T15:17:14.697Z,4.80
2023-04-21T15:19:41.377Z,7.40
2023-04-21T15:22:08.060Z,5.88
2023-04-21T15:24:34.777Z,6.45
2023-04-21T15:27:02.491Z,5.78
2023-04-21T15:29:29.125Z,6.05
2023-04-21T15:31:55.725Z,5.47
2023-04-21T15:34:22.245Z,5.63
2023-04-21T15:36:51.127Z,6.80
2023-04-21T15:39:17.649Z,5.30
2023-04-21T15:41:44.233Z,7.85
2023-04-21T15:44:11.252Z,4.70
2023-04-21T15:46:38.018Z,5.50
2023-04-21T15:49:05.016Z,6.90
2023-04-21T15:51:35.903Z,6.22
2023-04-21T15:54:02.405Z,6.15
2023-04-21T15:56:29.009Z,5.72
2023-04-21T15:58:55.826Z,4.90
2023-04-21T16:01:22.699Z,5.45
2023-04-21T16:03:49.735Z,6.13
2023-04-21T16:06:16.836Z,5.50
2023-04-21T16:08:43.694Z,5.32
2023-04-21T16:11:10.581Z,7.28
2023-04-21T16:13:37.135Z,5.40
2023-04-21T16:16:03.753Z,5.70
2023-04-21T16:18:30.550Z,6.10
2023-04-21T16:20:57.225Z,7.03
2023-04-21T16:23:25.291Z,7.32
2023-04-21T16:25:51.970Z,6.68
2023-04-21T16:28:18.561Z,4.78
2023-04-21T16:30:45.620Z,5.53
2023-04-21T16:33:13.080Z,8.15
2023-04-21T16:35:40.166Z,5.60
2023-04-21T16:38:07.123Z,9.77
2023-04-21T16:40:34.212Z,6.93
2023-04-21T16:43:00.978Z,5.78
2023-04-21T16:45:28.948Z,5.60
2023-04-21T16:47:56.460Z,5.95
2023-04-21T16:50:23.492Z,7.45
2023-04-21T16:52:50.088Z,6.15
2023-04-21T16:55:16.685Z,6.13
2023-04-21T16:57:43.224Z,5.68
2023-04-21T17:00:10.461Z,5.25
2023-04-21T17:02:37.250Z,6.22
2023-04-21T17:05:04.209Z,4.32
2023-04-21T17:07:32.129Z,7.20
2023-04-21T17:09:58.963Z,6.22
2023-04-21T17:12:25.572Z,3.85
2023-04-21T17:14:52.213Z,5.30
2023-04-21T17:17:18.885Z,3.17
2023-04-21T17:19:45.710Z,2.80
2023-04-21T17:22:12.484Z,6.82
2023-04-21T17:24:51.565Z,6.03
2023-04-21T17:27:19.710Z,4.85
2023-04-21T17:29:46.863Z,4.90
2023-04-21T17:32:13.513Z,4.35
2023-04-21T17:34:40.240Z,3.97
2023-04-21T17:37:06.911Z,4.05
2023-04-21T17:39:33.756Z,6.43
2023-04-21T17:42:01.919Z,4.97
2023-04-21T17:44:28.707Z,5.85
2023-04-21T17:46:55.916Z,4.72
2023-04-21T17:49:24.748Z,3.25
2023-04-21T17:51:51.996Z,4.88
2023-04-21T17:54:18.730Z,8.45
2023-04-21T17:56:48.155Z,10.02
2023-04-21T17:59:14.688Z,8.57
2023-04-21T18:01:41.454Z,6.25
2023-04-21T18:04:08.543Z,8.43
2023-04-21T18:06:36.036Z,4.53
2023-04-21T18:09:04.897Z,4.93
2023-04-21T18:11:31.875Z,6.85
2023-04-21T18:13:58.752Z,4.95
2023-04-21T18:16:25.896Z,4.95
2023-04-21T18:18:52.522Z,4.93
2023-04-21T18:21:19.107Z,5.38
2023-04-21T18:23:45.880Z,5.18
2023-04-21T18:26:15.749Z,8.38
2023-04-21T18:28:42.348Z,4.72
2023-04-21T18:31:09.240Z,11.18
2023-04-21T18:33:36.080Z,12.88
2023-04-21T18:36:02.894Z,12.02
2023-04-21T18:38:32.426Z,11.40
2023-04-21T18:40:58.965Z,9.13
2023-04-21T18:43:25.782Z,7.63
2023-04-21T18:45:52.875Z,5.78
2023-04-21T18:48:19.429Z,9.90
2023-04-21T18:50:46.870Z,9.93
2023-04-21T18:53:13.409Z,3.97
2023-04-21T18:55:41.604Z,3.75
2023-04-21T18:58:08.260Z,6.32
2023-04-21T19:00:37.554Z,7.90
2023-04-21T19:03:06.200Z,6.20
2023-04-21T19:05:34.791Z,4.78
2023-04-21T19:08:01.484Z,5.07
2023-04-21T19:10:28.886Z,4.28
2023-04-21T19:12:55.742Z,4.85
2023-04-21T19:15:22.526Z,6.80
2023-04-21T19:17:49.182Z,7.95
2023-04-21T19:20:15.938Z,10.82
2023-04-21T19:22:42.585Z,4.85
2023-04-21T19:25:09.639Z,7.07
2023-04-21T19:27:36.505Z,4.80
2023-04-21T19:30:03.592Z,7.15
2023-04-21T19:32:30.640Z,6.95
2023-04-21T19:34:57.348Z,6.80
2023-04-21T19:37:24.095Z,5.35
2023-04-21T19:39:50.663Z,7.20
2023-04-21T19:42:17.251Z,3.60
2023-04-21T19:44:43.896Z,2.13
2023-04-21T19:47:10.858Z,2.55
2023-04-21T19:49:37.475Z,3.25
2023-04-21T19:52:04.180Z,2.97
2023-04-21T19:54:31.008Z,5.18
2023-04-21T19:56:57.673Z,2.55
2023-04-21T19:59:24.173Z,2.20
2023-04-21T20:01:50.730Z,2.50
2023-04-21T20:04:17.651Z,3.80
2023-04-21T20:06:44.748Z,2.70
2023-04-21T20:09:11.601Z,2.67
2023-04-21T20:11:38.164Z,3.53
2023-04-21T20:14:04.876Z,3.40
2023-04-21T20:16:32.883Z,3.80
2023-04-21T20:18:59.854Z,3.05
2023-04-21T20:21:27.423Z,4.05
2023-04-21T20:23:57.085Z,4.97
2023-04-21T20:26:23.671Z,4.15
2023-04-21T20:28:50.281Z,5.07
2023-04-21T20:31:19.169Z,3.00
2023-04-21T20:33:45.842Z,4.10
2023-04-21T20:36:12.674Z,3.40
2023-04-21T20:38:39.314Z,3.95
2023-04-21T20:41:05.962Z,3.13
2023-04-21T20:43:33.222Z,3.88
2023-04-21T20:46:01.414Z,3.92
2023-04-21T20:48:28.139Z,4.70
2023-04-21T20:50:55.003Z,4.82
2023-04-21T20:53:22.327Z,4.97
2023-04-21T20:55:48.985Z,3.15
2023-04-21T20:58:15.554Z,4.05
2023-04-21T21:00:42.244Z,5.13
2023-04-21T21:03:11.487Z,3.13
2023-04-21T21:05:38.383Z,3.35
2023-04-21T21:08:05.485Z,6.32
2023-04-21T21:10:32.132Z,6.47
2023-04-21T21:12:59.739Z,5.50
2023-04-21T21:15:32.499Z,4.47
2023-04-21T21:17:59.182Z,3.25
2023-04-21T21:20:26.059Z,3.65
2023-04-21T21:22:52.672Z,4.10
2023-04-21T21:25:19.272Z,4.03
2023-04-21T21:27:46.174Z,4.50
2023-04-21T21:30:13.186Z,4.90
2023-04-21T21:32:39.786Z,5.40
2023-04-21T21:35:09.434Z,3.40
2023-04-21T21:37:37.105Z,4.25
2023-04-21T21:40:03.975Z,4.32
2023-04-21T21:42:30.480Z,3.17
2023-04-21T21:44:57.078Z,3.75
2023-04-21T21:47:23.680Z,5.57
2023-04-21T21:49:54.769Z,5.68
2023-04-21T21:52:21.862Z,6.00
2023-04-21T21:54:48.388Z,5.45
2023-04-21T21:57:14.950Z,4.85
2023-04-21T21:59:41.813Z,4.88
2023-04-21T22:02:08.584Z,6.68
2023-04-21T22:04:35.882Z,5.63
2023-04-21T22:07:03.245Z,4.57
2023-04-21T22:09:29.759Z,4.75
2023-04-21T22:11:56.711Z,4.13
2023-04-21T22:14:25.338Z,3.97
2023-04-21T22:16:52.706Z,5.38
2023-04-21T22:19:19.463Z,5.00
2023-04-21T22:21:46.143Z,4.80
2023-04-21T22:24:12.954Z,5.72
2023-04-21T22:26:39.682Z,5.45
2023-04-21T22:29:06.387Z,6.57
2023-04-21T22:31:33.127Z,5.28
2023-04-21T22:33:59.702Z,7.47
2023-04-21T22:36:26.331Z,5.32
2023-04-21T22:38:52.875Z,5.63
2023-04-21T22:41:19.683Z,5.00
2023-04-21T22:43:46.256Z,4.63
2023-04-21T22:46:13.073Z,5.57
2023-04-21T22:48:39.729Z,5.85
2023-04-21T22:51:07.280Z,8.23
2023-04-21T22:53:34.023Z,7.07
2023-04-21T22:56:00.654Z,5.90
2023-04-21T22:58:27.161Z,5.55
2023-04-21T23:00:53.830Z,6.40
2023-04-21T23:03:20.694Z,6.35
2023-04-21T23:05:47.456Z,6.10
2023-04-21T23:08:13.980Z,5.82
2023-04-21T23:10:40.658Z,5.88
2023-04-21T23:13:13.147Z,6.55
2023-04-21T23:15:39.615Z,6.43
2023-04-21T23:18:06.307Z,8.60
2023-04-21T23:20:32.874Z,7.35
2023-04-21T23:22:59.373Z,7.50
2023-04-21T23:25:29.078Z,7.22
2023-04-21T23:27:55.547Z,7.78
2023-04-21T23:30:22.225Z,6.47
2023-04-21T23:32:48.821Z,7.93
2023-04-21T23:35:15.503Z,8.52
2023-04-21T23:37:42.155Z,9.35
2023-04-21T23:40:11.220Z,7.38
2023-04-21T23:45:06.488Z,5.78
2023-04-21T23:47:33.381Z,8.57
2023-04-21T23:49:59.953Z,8.48
2023-04-21T23:52:26.943Z,10.02
2023-04-21T23:54:53.657Z,11.38
2023-04-21T23:57:20.385Z,10.18
2023-04-21T23:59:46.990Z,8.38
